Time;durP1;ratioP1;P1;durP2;ratioP2;P2;SDS_P1;SDS_P2;PMS_P1;PMS_P2;Temp;Humidity;BMP_temperature;BMP_pressure;BME280_temperature;BME280_humidity;BME280_pressure;Samples;Min_cycle;Max_cycle;Signal;HPM_P1;HPM_P2
2022/06/19 00:01:45;;;;;;;8.73;4.40;;;21.50;99.90;;;;;;4974162;28;20219;-72
2022/06/19 00:04:34;;;;;;;8.00;4.82;;;21.50;99.90;;;;;;4969959;28;20294;-71
2022/06/19 00:07:26;;;;;;;6.72;4.60;;;21.50;99.90;;;;;;4954790;28;20235;-70
2022/06/19 00:10:15;;;;;;;9.07;4.90;;;21.50;99.90;;;;;;4968499;28;20342;-70
2022/06/19 00:13:05;;;;;;;5.82;4.28;;;21.50;99.90;;;;;;4947977;28;20224;-72
2022/06/19 00:15:59;;;;;;;7.07;4.18;;;21.50;99.90;;;;;;4979517;28;20846;-72
2022/06/19 00:18:48;;;;;;;8.57;4.40;;;21.50;99.90;;;;;;4961811;28;20318;-70
2022/06/19 00:21:36;;;;;;;7.50;4.43;;;21.50;99.90;;;;;;4980240;28;20223;-71
2022/06/19 00:24:25;;;;;;;5.57;4.28;;;21.40;99.90;;;;;;4962877;28;20230;-71
2022/06/19 00:27:13;;;;;;;8.45;4.30;;;21.40;99.90;;;;;;4976598;28;20220;-71
2022/06/19 00:30:06;;;;;;;7.55;4.07;;;21.40;99.90;;;;;;4976674;28;20867;-71
2022/06/19 00:32:55;;;;;;;5.40;4.30;;;21.40;99.90;;;;;;4979566;28;20418;-71
2022/06/19 00:35:43;;;;;;;8.07;4.30;;;21.40;99.90;;;;;;4977553;28;20215;-70
2022/06/19 00:38:32;;;;;;;4.88;3.92;;;21.40;99.90;;;;;;4977660;28;20326;-74
2022/06/19 00:41:21;;;;;;;9.80;4.30;;;21.40;99.90;;;;;;4972795;28;20230;-73
2022/06/19 00:44:12;;;;;;;8.00;4.20;;;21.40;99.90;;;;;;4973069;28;20236;-73
2022/06/19 00:47:08;;;;;;;4.45;4.03;;;21.30;99.90;;;;;;4977271;28;20302;-73
2022/06/19 00:49:59;;;;;;;7.22;4.32;;;21.30;99.90;;;;;;4962003;28;20362;-74
2022/06/19 00:52:48;;;;;;;11.10;4.63;;;21.30;99.90;;;;;;4977420;28;20211;-72
2022/06/19 00:55:40;;;;;;;5.28;3.90;;;21.20;99.90;;;;;;4966059;28;20322;-71
2022/06/19 00:58:32;;;;;;;7.10;4.05;;;21.30;99.90;;;;;;4975821;28;20226;-75
2022/06/19 01:01:28;;;;;;;5.85;4.30;;;21.20;99.90;;;;;;4971814;28;20230;-73
2022/06/19 01:04:23;;;;;;;6.05;4.10;;;21.20;99.90;;;;;;4976731;28;20752;-73
2022/06/19 01:07:13;;;;;;;6.78;4.07;;;21.20;99.90;;;;;;4966579;28;20602;-72
2022/06/19 01:10:02;;;;;;;5.07;4.20;;;21.10;99.90;;;;;;4979794;28;20318;-71
2022/06/19 01:12:51;;;;;;;5.72;4.00;;;21.10;99.90;;;;;;4963737;28;20281;-71
2022/06/19 01:15:40;;;;;;;6.90;4.20;;;21.00;99.90;;;;;;4976215;28;20708;-71
2022/06/19 01:18:31;;;;;;;4.75;4.15;;;21.10;99.90;;;;;;4977441;28;20887;-71
2022/06/19 01:21:29;;;;;;;6.82;4.35;;;21.10;99.90;;;;;;4979266;28;20273;-71
2022/06/19 01:24:28;;;;;;;5.50;4.40;;;21.00;99.90;;;;;;4980071;28;20238;-71
2022/06/19 01:30:22;;;;;;;8.23;4.75;;;21.00;99.90;;;;;;4976977;28;20736;-71
2022/06/19 01:33:14;;;;;;;5.45;4.50;;;20.90;99.90;;;;;;4976740;28;20214;-73
2022/06/19 01:36:10;;;;;;;7.00;4.55;;;20.90;99.90;;;;;;4959966;28;20258;-72
2022/06/19 01:39:00;;;;;;;7.53;4.80;;;20.80;99.90;;;;;;4996337;28;20222;-72
2022/06/19 01:41:48;;;;;;;5.47;4.32;;;20.80;99.90;;;;;;4983088;28;20246;-72
2022/06/19 01:44:39;;;;;;;5.97;4.80;;;20.80;99.90;;;;;;4997470;28;20257;-72
2022/06/19 01:47:28;;;;;;;10.35;4.43;;;20.80;99.90;;;;;;4998751;28;20234;-72
2022/06/19 01:50:20;;;;;;;5.28;4.45;;;20.70;99.90;;;;;;5000740;28;20241;-73
2022/06/19 01:53:14;;;;;;;7.70;4.22;;;20.70;99.90;;;;;;4998389;28;20214;-72
2022/06/19 01:56:04;;;;;;;4.55;4.15;;;20.60;99.90;;;;;;4974320;28;20226;-73
2022/06/19 01:58:55;;;;;;;7.95;4.40;;;20.70;99.90;;;;;;4972538;28;20220;-73
2022/06/19 02:01:46;;;;;;;7.28;4.32;;;20.60;99.90;;;;;;4979765;28;20234;-74
2022/06/19 02:04:35;;;;;;;6.47;4.60;;;20.60;99.90;;;;;;5000003;28;20225;-73
2022/06/19 02:07:31;;;;;;;5.10;4.60;;;20.60;99.90;;;;;;5000199;28;20810;-72
2022/06/19 02:10:21;;;;;;;7.78;4.22;;;20.50;99.90;;;;;;4997326;28;20222;-71
2022/06/19 02:13:11;;;;;;;6.05;4.38;;;20.60;99.90;;;;;;5000050;28;20301;-72
2022/06/19 02:16:00;;;;;;;7.68;4.60;;;20.50;99.90;;;;;;5000727;28;20234;-71
2022/06/19 02:18:53;;;;;;;5.78;4.65;;;20.50;99.90;;;;;;4985590;28;20237;-71
2022/06/19 02:21:44;;;;;;;8.35;4.93;;;20.40;99.90;;;;;;4988918;28;20233;-71
2022/06/19 02:24:33;;;;;;;8.88;4.70;;;20.50;99.90;;;;;;4998785;28;20230;-73
2022/06/19 02:27:22;;;;;;;8.38;4.90;;;20.40;99.90;;;;;;4998721;28;20369;-72
2022/06/19 02:30:14;;;;;;;6.85;4.20;;;20.40;99.90;;;;;;4995293;28;20301;-72
2022/06/19 02:33:04;;;;;;;11.02;4.50;;;20.40;99.90;;;;;;4997114;28;20245;-74
2022/06/19 02:35:54;;;;;;;9.00;5.03;;;20.40;99.90;;;;;;4984840;28;20226;-73
2022/06/19 02:38:42;;;;;;;6.20;4.63;;;20.40;99.90;;;;;;4994931;28;20241;-72
2022/06/19 02:41:42;;;;;;;7.53;4.40;;;20.40;99.90;;;;;;4997466;28;20307;-72
2022/06/19 02:44:41;;;;;;;8.38;4.72;;;20.50;99.90;;;;;;4995751;28;20227;-73
2022/06/19 02:47:33;;;;;;;5.53;4.15;;;20.60;99.90;;;;;;4995063;28;20300;-72
2022/06/19 02:50:25;;;;;;;8.07;4.47;;;20.60;99.90;;;;;;4996998;28;20218;-72
2022/06/19 02:53:15;;;;;;;6.63;4.32;;;20.60;99.90;;;;;;4998218;28;20272;-73
2022/06/19 02:56:04;;;;;;;7.85;4.47;;;20.60;99.90;;;;;;4999839;28;20226;-71
2022/06/19 02:58:53;;;;;;;6.95;4.28;;;20.60;99.90;;;;;;4996894;28;20214;-69
2022/06/19 03:01:42;;;;;;;7.43;4.57;;;20.70;99.90;;;;;;4997519;28;20218;-73
2022/06/19 03:04:35;;;;;;;5.82;4.60;;;20.70;99.90;;;;;;4996785;28;20261;-72
2022/06/19 03:07:26;;;;;;;6.43;4.68;;;20.70;99.90;;;;;;4997630;28;20552;-72
2022/06/19 03:10:20;;;;;;;5.75;4.30;;;20.70;99.90;;;;;;4995050;28;20635;-71
2022/06/19 03:13:12;;;;;;;7.53;4.65;;;20.80;99.90;;;;;;4994415;28;20229;-71
2022/06/19 03:16:02;;;;;;;8.40;4.57;;;20.70;99.90;;;;;;4999498;28;20228;-70
2022/06/19 03:18:51;;;;;;;8.63;4.20;;;20.70;99.90;;;;;;4996394;28;20637;-71
2022/06/19 03:21:40;;;;;;;5.10;4.18;;;20.70;99.90;;;;;;4997293;28;20724;-71
2022/06/19 03:24:29;;;;;;;5.80;4.68;;;20.70;99.90;;;;;;4989935;28;20230;-69
2022/06/19 03:27:19;;;;;;;4.72;4.20;;;20.70;99.90;;;;;;4999502;28;20218;-68
2022/06/19 03:30:09;;;;;;;6.82;4.80;;;20.70;99.90;;;;;;4996636;28;20292;-69
2022/06/19 03:32:57;;;;;;;10.00;4.70;;;20.80;99.90;;;;;;4995841;28;20261;-71
2022/06/19 03:35:46;;;;;;;6.85;4.80;;;20.80;99.90;;;;;;4997247;28;20225;-71
2022/06/19 03:38:38;;;;;;;6.05;4.50;;;20.80;99.90;;;;;;4994590;28;20386;-72
2022/06/19 03:41:26;;;;;;;5.32;4.38;;;20.80;99.90;;;;;;5007808;28;20225;-73
2022/06/19 03:44:20;;;;;;;6.57;4.60;;;20.80;99.90;;;;;;4989292;28;20249;-73
2022/06/19 03:47:08;;;;;;;7.47;4.78;;;20.80;99.90;;;;;;4997138;28;20233;-71
2022/06/19 03:49:57;;;;;;;8.15;4.32;;;20.80;99.90;;;;;;4995810;28;20302;-72
2022/06/19 03:52:46;;;;;;;6.95;4.75;;;20.80;99.90;;;;;;4988277;28;20231;-73
2022/06/19 03:55:35;;;;;;;7.85;4.82;;;20.90;99.90;;;;;;4999558;28;20230;-72
2022/06/19 03:58:23;;;;;;;7.57;4.80;;;20.90;99.90;;;;;;4993087;28;20325;-72
2022/06/19 04:01:22;;;;;;;8.50;4.82;;;20.90;99.90;;;;;;4991792;28;20336;-71
2022/06/19 04:04:12;;;;;;;8.18;4.70;;;21.00;99.90;;;;;;4996635;28;20222;-71
2022/06/19 04:07:00;;;;;;;7.43;5.05;;;20.90;99.90;;;;;;4998074;28;20230;-70
2022/06/19 04:09:49;;;;;;;5.60;4.57;;;21.00;99.90;;;;;;4998040;28;20214;-72
2022/06/19 04:12:38;;;;;;;6.90;4.78;;;21.00;99.90;;;;;;4993746;28;20226;-73
2022/06/19 04:15:26;;;;;;;6.85;4.90;;;21.10;99.90;;;;;;5000054;28;20234;-72
2022/06/19 04:18:16;;;;;;;5.82;4.80;;;21.10;99.90;;;;;;5000237;28;20222;-73
2022/06/19 04:21:05;;;;;;;4.68;4.20;;;21.10;99.90;;;;;;4996711;28;20226;-72
2022/06/19 04:23:55;;;;;;;8.68;4.95;;;21.10;99.90;;;;;;4998226;28;20781;-72
2022/06/19 04:26:44;;;;;;;5.97;4.85;;;21.10;99.90;;;;;;4995518;28;20210;-72
2022/06/19 04:29:33;;;;;;;5.22;4.70;;;21.20;99.90;;;;;;4997381;28;20319;-72
2022/06/19 04:32:21;;;;;;;6.50;4.88;;;21.30;99.90;;;;;;4997149;28;20309;-72
2022/06/19 04:35:11;;;;;;;8.45;4.80;;;21.30;99.90;;;;;;4997201;28;20218;-72
2022/06/19 04:38:00;;;;;;;8.70;5.13;;;21.40;99.90;;;;;;5002601;28;20237;-73
2022/06/19 04:40:50;;;;;;;9.15;5.13;;;21.40;99.90;;;;;;4998159;28;20724;-73
2022/06/19 04:43:39;;;;;;;6.85;4.35;;;21.60;99.90;;;;;;4997841;28;20713;-72
2022/06/19 04:46:29;;;;;;;6.63;4.60;;;21.60;99.90;;;;;;5000073;28;20222;-73
2022/06/19 04:49:17;;;;;;;6.18;5.13;;;21.70;99.90;;;;;;5005376;28;20286;-73
2022/06/19 04:52:08;;;;;;;9.50;5.45;;;21.70;99.90;;;;;;5001846;28;20237;-73
2022/06/19 04:54:57;;;;;;;8.68;4.90;;;21.90;99.90;;;;;;5001146;28;20214;-72
2022/06/19 04:57:46;;;;;;;7.20;4.40;;;22.00;99.90;;;;;;5001560;28;20248;-72
2022/06/19 05:00:35;;;;;;;6.35;4.88;;;22.00;99.90;;;;;;5004697;28;20256;-72
2022/06/19 05:03:24;;;;;;;5.05;4.43;;;22.10;99.90;;;;;;4998221;28;20322;-72
2022/06/19 05:06:13;;;;;;;6.57;4.68;;;22.10;99.90;;;;;;5000224;28;20576;-72
2022/06/19 05:09:04;;;;;;;6.75;4.43;;;22.20;99.90;;;;;;5001068;28;20302;-72
2022/06/19 05:11:55;;;;;;;6.65;4.53;;;22.30;99.90;;;;;;5004502;28;20464;-71
2022/06/19 05:14:44;;;;;;;5.57;4.45;;;22.30;99.90;;;;;;5001606;28;20223;-72
2022/06/19 05:17:33;;;;;;;5.18;4.68;;;22.40;99.90;;;;;;4998606;28;20229;-70
2022/06/19 05:20:22;;;;;;;6.20;4.70;;;22.50;99.90;;;;;;5002784;28;20214;-74
2022/06/19 05:23:12;;;;;;;5.18;4.57;;;22.60;99.90;;;;;;4996643;28;20234;-70
2022/06/19 05:26:08;;;;;;;7.07;4.55;;;22.60;99.90;;;;;;4996932;28;20290;-71
2022/06/19 05:28:58;;;;;;;6.70;4.82;;;22.70;99.90;;;;;;5000768;28;20234;-69
2022/06/19 05:31:46;;;;;;;6.50;4.90;;;22.90;99.90;;;;;;5001207;28;20233;-72
2022/06/19 05:34:40;;;;;;;5.35;4.82;;;23.00;99.90;;;;;;5002598;28;20228;-72
2022/06/19 05:37:35;;;;;;;7.43;4.95;;;22.90;99.90;;;;;;5011958;28;20640;-73
2022/06/19 05:40:23;;;;;;;6.70;5.05;;;22.90;99.90;;;;;;5000989;28;20234;-72
2022/06/19 05:43:17;;;;;;;9.15;5.00;;;23.10;99.90;;;;;;5001556;28;20229;-73
2022/06/19 05:46:07;;;;;;;7.30;4.95;;;23.20;99.90;;;;;;5001021;28;20236;-71
2022/06/19 05:48:56;;;;;;;6.88;4.47;;;23.30;99.90;;;;;;5000458;28;20727;-71
2022/06/19 05:51:44;;;;;;;7.05;5.15;;;23.30;99.90;;;;;;5005115;28;20337;-72
2022/06/19 05:54:33;;;;;;;5.65;5.13;;;23.40;99.90;;;;;;4994203;28;20225;-72
2022/06/19 05:57:22;;;;;;;7.82;4.82;;;23.50;99.90;;;;;;5005865;28;20344;-71
2022/06/19 06:00:13;;;;;;;9.07;4.65;;;23.60;99.90;;;;;;4999199;28;20739;-70
2022/06/19 06:03:02;;;;;;;9.05;4.80;;;23.70;99.90;;;;;;5001830;28;20218;-72
2022/06/19 06:05:50;;;;;;;6.35;4.70;;;23.90;99.90;;;;;;5000713;28;20234;-71
2022/06/19 06:08:43;;;;;;;5.30;4.80;;;24.00;99.90;;;;;;4997650;28;20690;-73
2022/06/19 06:11:32;;;;;;;6.53;4.93;;;24.00;99.90;;;;;;5003197;28;22188;-74
2022/06/19 06:14:21;;;;;;;8.10;5.10;;;24.10;99.90;;;;;;4995056;28;20230;-73
2022/06/19 06:17:11;;;;;;;7.88;4.95;;;24.30;99.90;;;;;;5001174;28;20226;-72
2022/06/19 06:20:00;;;;;;;5.40;4.90;;;24.30;99.90;;;;;;5000618;28;20315;-74
2022/06/19 06:22:49;;;;;;;7.90;4.85;;;24.60;99.90;;;;;;4999570;28;20934;-73
2022/06/19 06:25:40;;;;;;;5.55;4.68;;;25.40;99.90;;;;;;4998407;28;20241;-73
2022/06/19 06:28:35;;;;;;;6.03;4.50;;;26.40;99.90;;;;;;4997248;28;20222;-73
2022/06/19 06:31:24;;;;;;;5.22;4.72;;;26.70;99.90;;;;;;4999001;28;20606;-73
2022/06/19 06:34:19;;;;;;;5.57;4.35;;;26.30;99.90;;;;;;4997068;28;20257;-73
2022/06/19 06:37:09;;;;;;;6.43;4.88;;;26.00;99.90;;;;;;4998834;28;20605;-72
2022/06/19 06:39:58;;;;;;;6.28;5.13;;;25.80;99.90;;;;;;4998370;28;20686;-74
2022/06/19 06:42:48;;;;;;;7.65;4.65;;;25.70;99.90;;;;;;4998686;28;20701;-75
2022/06/19 06:45:37;;;;;;;6.28;4.45;;;25.70;99.90;;;;;;4993261;28;20777;-75
2022/06/19 06:48:29;;;;;;;6.13;4.28;;;25.70;99.90;;;;;;5001536;28;20695;-76
2022/06/19 06:51:23;;;;;;;8.27;4.95;;;26.00;99.90;;;;;;4999877;28;20225;-75
2022/06/19 06:54:12;;;;;;;7.15;4.35;;;26.10;99.90;;;;;;4997779;28;20214;-75
2022/06/19 06:57:04;;;;;;;4.95;4.45;;;26.10;99.90;;;;;;4998843;28;20337;-72
2022/06/19 06:59:52;;;;;;;5.93;4.45;;;26.10;99.90;;;;;;4999343;28;20529;-71
2022/06/19 07:02:41;;;;;;;7.43;4.55;;;26.10;99.90;;;;;;5001224;28;20260;-71
2022/06/19 07:05:30;;;;;;;6.63;4.70;;;26.20;99.90;;;;;;5001054;28;20290;-75
2022/06/19 07:08:20;;;;;;;7.47;4.40;;;26.30;99.90;;;;;;5000523;28;20219;-73
2022/06/19 07:11:14;;;;;;;6.05;4.30;;;26.40;99.90;;;;;;4997023;28;20261;-70
2022/06/19 07:14:03;;;;;;;9.48;4.50;;;26.50;99.90;;;;;;5001899;28;20234;-72
2022/06/19 07:16:52;;;;;;;5.47;4.40;;;26.80;99.90;;;;;;4999445;28;20797;-72
2022/06/19 07:19:40;;;;;;;8.60;4.38;;;27.00;99.90;;;;;;4995779;28;20230;-72
2022/06/19 07:22:29;;;;;;;8.40;4.53;;;27.10;99.90;;;;;;5001094;28;20245;-72
2022/06/19 07:25:24;;;;;;;6.60;4.60;;;27.10;99.90;;;;;;4996244;28;20237;-72
2022/06/19 07:28:15;;;;;;;9.38;4.70;;;27.30;99.90;;;;;;4999851;28;20380;-73
2022/06/19 07:31:04;;;;;;;7.25;4.72;;;27.40;99.50;;;;;;4999375;28;20305;-72
2022/06/19 07:33:52;;;;;;;4.90;4.35;;;27.60;99.20;;;;;;4995816;28;20256;-72
2022/06/19 07:36:43;;;;;;;6.65;4.60;;;27.80;98.60;;;;;;5003565;28;20229;-71
2022/06/19 07:39:31;;;;;;;10.00;4.82;;;28.10;97.70;;;;;;5000649;28;20619;-76
2022/06/19 07:42:21;;;;;;;6.63;4.15;;;28.60;96.60;;;;;;4995854;28;20226;-71
2022/06/19 07:45:10;;;;;;;6.80;4.50;;;28.90;95.20;;;;;;5001589;28;20237;-72
2022/06/19 07:51:05;;;;;;;8.50;4.30;;;29.50;92.20;;;;;;4998128;28;20220;-75
2022/06/19 07:53:54;;;;;;;11.02;4.70;;;29.70;92.00;;;;;;4997929;28;20228;-71
2022/06/19 07:56:42;;;;;;;6.68;4.00;;;29.90;91.10;;;;;;4999592;28;20222;-72
2022/06/19 07:59:32;;;;;;;7.88;4.05;;;29.90;89.80;;;;;;4997661;28;20439;-71
2022/06/19 08:02:21;;;;;;;9.45;4.13;;;30.20;89.50;;;;;;5003815;28;20235;-71
2022/06/19 08:05:11;;;;;;;5.97;4.07;;;30.50;87.10;;;;;;5003345;28;20317;-71
2022/06/19 08:08:03;;;;;;;5.93;4.25;;;30.70;86.00;;;;;;4999231;28;20316;-76
2022/06/19 08:10:54;;;;;;;4.82;3.67;;;31.00;84.10;;;;;;4995174;28;21069;-73
2022/06/19 08:13:43;;;;;;;6.63;3.90;;;31.30;82.90;;;;;;5008840;28;20225;-75
2022/06/19 08:16:33;;;;;;;10.73;3.90;;;31.40;81.40;;;;;;5004159;28;20864;-74
2022/06/19 08:19:22;;;;;;;5.00;3.50;;;31.50;79.00;;;;;;4998457;28;20225;-73
2022/06/19 08:22:10;;;;;;;7.82;4.10;;;31.60;79.50;;;;;;4995384;28;20218;-71
2022/06/19 08:24:59;;;;;;;8.77;4.30;;;31.90;78.50;;;;;;5002291;28;20218;-72
2022/06/19 08:27:49;;;;;;;6.00;4.13;;;32.10;77.40;;;;;;5001709;28;20230;-70
2022/06/19 08:30:41;;;;;;;8.63;4.07;;;32.20;76.80;;;;;;5004578;28;20222;-73
2022/06/19 08:33:31;;;;;;;6.43;3.80;;;32.30;75.90;;;;;;5002226;28;20262;-73
2022/06/19 08:36:20;;;;;;;14.15;4.28;;;32.60;75.00;;;;;;5001034;28;20344;-76
2022/06/19 08:39:13;;;;;;;7.10;3.90;;;32.60;74.60;;;;;;5003261;28;20228;-73
2022/06/19 08:42:27;;;;;;;9.95;3.90;;;32.90;73.80;;;;;;5002152;28;20232;-75
2022/06/19 08:45:31;;;;;;;6.13;3.80;;;33.10;72.30;;;;;;4998044;28;20226;-72
2022/06/19 08:48:42;;;;;;;11.32;4.05;;;33.10;71.10;;;;;;4993758;28;20264;-71
2022/06/19 08:51:43;;;;;;;5.63;3.70;;;33.50;70.80;;;;;;4996970;28;20367;-73
2022/06/19 08:54:45;;;;;;;10.68;3.85;;;33.90;70.00;;;;;;4996080;28;20232;-76
2022/06/19 10:58:32;;;;;;;5.60;2.78;;;41.90;43.70;;;;;;5031285;27;20649;-71
2022/06/19 11:04:38;;;;;;;8.10;2.65;;;42.70;42.70;;;;;;5057582;28;20235;-73
2022/06/19 11:07:27;;;;;;;6.38;2.78;;;43.50;42.00;;;;;;5056752;28;20215;-72
2022/06/19 11:10:31;;;;;;;8.27;2.80;;;43.40;41.60;;;;;;5055941;28;20231;-71
2022/06/19 11:13:20;;;;;;;3.70;2.60;;;43.70;41.60;;;;;;5073480;28;20231;-72
2022/06/19 11:16:11;;;;;;;5.00;2.63;;;44.20;41.50;;;;;;5074130;28;20227;-75
2022/06/19 14:59:18;;;;;;;12.20;4.13;;;32.10;58.40;;;;;;5048276;27;20572;-74
2022/06/19 15:02:14;;;;;;;9.02;3.53;;;31.80;58.60;;;;;;5051204;28;20226;-75
2022/06/19 15:05:10;;;;;;;7.07;3.55;;;31.80;58.80;;;;;;5051052;28;20224;-75
2022/06/19 15:08:04;;;;;;;8.77;3.95;;;31.80;59.20;;;;;;5049152;28;20231;-73
2022/06/19 15:10:56;;;;;;;14.10;3.53;;;31.90;59.70;;;;;;5047066;28;20220;-76
2022/06/19 15:13:46;;;;;;;9.02;3.72;;;31.80;58.80;;;;;;5053795;28;20219;-76
2022/06/19 15:16:41;;;;;;;5.82;3.45;;;31.70;59.10;;;;;;5051483;28;20228;-76
2022/06/19 15:19:41;;;;;;;6.72;3.40;;;31.60;59.20;;;;;;5055898;28;20223;-77
2022/06/19 15:22:36;;;;;;;9.52;4.20;;;31.60;59.70;;;;;;5048762;28;20227;-75
2022/06/19 15:25:29;;;;;;;9.00;3.80;;;31.60;59.80;;;;;;5071621;28;20220;-76
2022/06/19 15:28:59;;;;;;;12.05;3.40;;;31.50;60.00;;;;;;5077869;28;20223;-81
2022/06/19 15:32:39;;;;;;;10.90;3.97;;;31.50;60.30;;;;;;5033502;28;20717;-82
2022/06/19 15:36:00;;;;;;;9.43;3.80;;;31.50;60.50;;;;;;5051785;28;20212;-83
2022/06/19 15:39:21;;;;;;;9.60;3.67;;;31.50;60.90;;;;;;5065062;28;20243;-84
2022/06/19 15:42:24;;;;;;;7.75;3.75;;;31.50;61.00;;;;;;5058274;28;20212;-83
2022/06/19 15:45:20;;;;;;;7.75;3.90;;;31.50;61.00;;;;;;5061017;28;20250;-84
2022/06/19 15:48:43;;;;;;;10.30;4.10;;;31.40;61.00;;;;;;5050471;28;21364;-83
2022/06/19 15:51:36;;;;;;;10.05;4.28;;;31.40;61.10;;;;;;5056583;28;20575;-83
2022/06/19 15:54:26;;;;;;;10.35;4.00;;;31.30;61.10;;;;;;5060275;28;20276;-81
2022/06/19 15:57:20;;;;;;;14.10;4.35;;;31.30;61.50;;;;;;5057116;28;20232;-77
2022/06/19 16:00:18;;;;;;;7.25;3.65;;;31.30;62.20;;;;;;5035741;28;20215;-76
2022/06/19 16:03:13;;;;;;;15.50;3.78;;;31.30;62.20;;;;;;5038380;28;20686;-76
2022/06/19 16:06:06;;;;;;;8.30;4.05;;;31.20;62.20;;;;;;5048228;28;20227;-76
2022/06/19 16:08:59;;;;;;;9.65;4.13;;;31.20;62.10;;;;;;5044579;28;20243;-77
2022/06/19 16:11:55;;;;;;;12.95;4.53;;;31.20;62.10;;;;;;5042529;28;20222;-77
2022/06/19 16:14:44;;;;;;;8.20;4.03;;;31.20;61.50;;;;;;5032233;28;20610;-78
2022/06/19 16:17:35;;;;;;;12.55;3.78;;;31.10;61.30;;;;;;5034527;28;20220;-77
2022/06/19 16:20:26;;;;;;;11.23;3.90;;;31.10;61.40;;;;;;5037843;28;20314;-77
2022/06/19 16:23:16;;;;;;;9.63;3.70;;;31.10;61.60;;;;;;5037662;28;20224;-74
2022/06/19 16:26:05;;;;;;;10.82;3.42;;;31.10;61.90;;;;;;5043422;28;20213;-74
2022/06/19 16:28:56;;;;;;;9.07;3.63;;;31.10;62.20;;;;;;5031422;28;20256;-76
2022/06/19 16:31:51;;;;;;;13.98;3.70;;;31.00;61.70;;;;;;5034404;28;20247;-75
2022/06/19 16:44:14;;;;;;;12.50;3.38;;;31.00;60.80;;;;;;5035735;28;21504;-77
2022/06/19 16:47:06;;;;;;;9.98;3.33;;;30.90;60.50;;;;;;5032812;28;20216;-76
2022/06/19 16:50:01;;;;;;;10.52;3.45;;;30.80;59.60;;;;;;5036026;28;20228;-75
2022/06/19 16:52:54;;;;;;;12.57;3.13;;;30.80;59.70;;;;;;5038672;28;20228;-74
2022/06/19 16:55:45;;;;;;;12.60;3.10;;;30.80;60.00;;;;;;5036428;28;20224;-75
2022/06/19 16:58:38;;;;;;;10.48;3.38;;;30.80;60.00;;;;;;5029976;28;20231;-75
2022/06/19 17:01:31;;;;;;;10.02;3.15;;;30.70;60.10;;;;;;5019823;28;20229;-75
2022/06/19 17:04:22;;;;;;;7.32;2.88;;;30.70;60.10;;;;;;5019655;28;20856;-75
2022/06/19 17:07:16;;;;;;;10.35;3.13;;;30.60;60.40;;;;;;5021754;28;20225;-74
2022/06/19 17:10:07;;;;;;;8.50;3.40;;;30.60;60.80;;;;;;5030975;28;20718;-76
2022/06/19 17:12:56;;;;;;;13.48;3.22;;;30.60;61.30;;;;;;5033178;28;20262;-75
2022/06/19 17:15:48;;;;;;;12.40;3.45;;;30.50;61.50;;;;;;5028132;28;20239;-75
2022/06/19 17:18:44;;;;;;;11.80;3.80;;;30.50;61.70;;;;;;5024441;28;20212;-76
2022/06/19 17:21:45;;;;;;;8.20;3.10;;;30.40;61.40;;;;;;5027573;28;20398;-76
2022/06/19 17:24:48;;;;;;;10.95;3.30;;;30.30;60.60;;;;;;5029910;28;20699;-76
2022/06/19 17:28:00;;;;;;;17.98;3.88;;;30.30;60.30;;;;;;5028704;28;20220;-76
2022/06/19 17:31:04;;;;;;;6.85;3.10;;;30.30;60.60;;;;;;5028498;28;20224;-75
2022/06/19 17:33:53;;;;;;;8.73;3.38;;;30.20;60.70;;;;;;5032090;28;20723;-75
2022/06/19 17:36:42;;;;;;;6.95;3.33;;;30.10;60.70;;;;;;5030982;28;20846;-74
2022/06/19 17:39:33;;;;;;;15.15;3.53;;;30.10;61.10;;;;;;5029484;28;20221;-75
2022/06/19 17:42:25;;;;;;;12.23;3.45;;;30.10;61.50;;;;;;5032545;28;20711;-75
2022/06/19 17:45:21;;;;;;;11.75;2.97;;;30.00;61.60;;;;;;5033156;28;20216;-74
2022/06/19 17:48:11;;;;;;;11.23;3.60;;;30.00;62.00;;;;;;5030538;28;20220;-73
2022/06/19 17:51:27;;;;;;;11.45;3.00;;;29.90;62.20;;;;;;5032531;28;20232;-75
2022/06/19 17:54:35;;;;;;;9.73;2.85;;;29.90;62.70;;;;;;5029649;28;20251;-75
2022/06/19 17:57:45;;;;;;;10.65;3.45;;;29.80;63.00;;;;;;5033126;28;20243;-74
2022/06/19 18:00:35;;;;;;;11.18;4.22;;;29.70;63.50;;;;;;5016724;28;20220;-75
2022/06/19 18:03:29;;;;;;;11.88;3.78;;;29.70;64.00;;;;;;5032517;28;20695;-72
2022/06/19 18:06:18;;;;;;;8.70;3.67;;;29.70;64.30;;;;;;5023371;28;20217;-75
2022/06/19 18:09:08;;;;;;;8.95;3.25;;;29.50;64.80;;;;;;5032539;28;20251;-76
2022/06/19 18:11:57;;;;;;;10.35;3.30;;;29.50;65.20;;;;;;5035028;28;20225;-74
2022/06/19 18:14:46;;;;;;;16.60;3.20;;;29.50;65.60;;;;;;5029677;28;20217;-74
2022/06/19 18:20:43;;;;;;;12.77;4.00;;;29.30;66.10;;;;;;5035607;28;20273;-73
2022/06/19 18:23:31;;;;;;;11.05;3.63;;;29.20;66.20;;;;;;5034149;28;20228;-75
2022/06/19 18:26:24;;;;;;;13.60;3.50;;;29.20;66.60;;;;;;5036180;28;20224;-74
2022/06/19 18:29:18;;;;;;;9.43;3.58;;;29.10;66.60;;;;;;5034789;28;20218;-75
2022/06/19 18:32:10;;;;;;;8.55;3.47;;;29.10;66.80;;;;;;5025984;28;20221;-74
2022/06/19 18:35:05;;;;;;;9.32;3.50;;;28.90;67.30;;;;;;5031532;28;20281;-74
2022/06/19 18:38:10;;;;;;;9.30;3.20;;;28.90;67.50;;;;;;5031365;28;20266;-74
2022/06/19 18:40:59;;;;;;;11.60;3.85;;;28.90;68.10;;;;;;5032862;28;20228;-75
2022/06/19 18:43:48;;;;;;;13.05;4.05;;;28.70;68.50;;;;;;5028032;28;20221;-75
2022/06/19 18:46:37;;;;;;;10.70;4.15;;;28.60;69.20;;;;;;5032455;28;20235;-75
2022/06/19 18:49:47;;;;;;;11.15;4.13;;;28.60;69.60;;;;;;5031096;28;20300;-75
2022/06/19 18:52:37;;;;;;;10.43;3.70;;;28.50;70.20;;;;;;5033361;28;20817;-76
2022/06/19 18:55:30;;;;;;;13.80;4.35;;;28.40;70.40;;;;;;5033556;28;20282;-74
2022/06/19 18:58:22;;;;;;;11.85;3.80;;;28.30;70.70;;;;;;5025926;28;20580;-75
2022/06/19 19:01:12;;;;;;;11.20;4.13;;;28.20;71.10;;;;;;5019291;28;20218;-76
2022/06/19 19:04:01;;;;;;;8.57;3.70;;;28.20;71.40;;;;;;5031905;28;20214;-72
2022/06/19 19:06:52;;;;;;;14.20;4.55;;;28.10;71.20;;;;;;5033871;28;20228;-73
2022/06/19 19:09:46;;;;;;;14.98;4.07;;;28.00;71.30;;;;;;5033510;28;20228;-74
2022/06/19 19:12:37;;;;;;;14.52;4.22;;;28.00;71.70;;;;;;5029015;28;20626;-74
2022/06/19 19:15:29;;;;;;;10.55;3.53;;;27.90;71.60;;;;;;5030330;28;21214;-74
2022/06/19 19:18:18;;;;;;;14.50;4.20;;;27.90;71.50;;;;;;5033479;28;20809;-74
2022/06/19 19:21:08;;;;;;;13.55;3.97;;;27.80;71.60;;;;;;5032565;28;20683;-74
2022/06/19 19:23:57;;;;;;;11.48;3.80;;;27.80;71.60;;;;;;5035507;28;20228;-74
2022/06/19 19:26:51;;;;;;;13.75;3.88;;;27.80;72.50;;;;;;5028443;28;20459;-74
2022/06/19 19:29:51;;;;;;;9.13;3.83;;;27.70;72.10;;;;;;5032453;28;20228;-73
2022/06/19 19:32:42;;;;;;;9.63;3.90;;;27.60;72.50;;;;;;5033715;28;20232;-75
2022/06/19 19:35:33;;;;;;;14.95;4.18;;;27.60;73.00;;;;;;5030186;28;20280;-74
2022/06/19 19:38:25;;;;;;;14.60;4.13;;;27.50;73.50;;;;;;5043157;28;20509;-75
2022/06/19 19:41:13;;;;;;;18.10;4.25;;;27.40;73.80;;;;;;5034819;28;20232;-72
2022/06/19 19:44:02;;;;;;;13.73;3.60;;;27.40;74.10;;;;;;5032570;28;20221;-74
2022/06/19 19:46:55;;;;;;;15.90;3.95;;;27.30;74.40;;;;;;5045389;28;20221;-74
2022/06/19 19:49:50;;;;;;;12.32;4.22;;;27.30;75.00;;;;;;5035791;28;20233;-74
2022/06/19 19:52:44;;;;;;;7.22;3.63;;;27.20;75.30;;;;;;5037503;28;20263;-74
2022/06/19 19:55:33;;;;;;;12.35;4.20;;;27.20;75.50;;;;;;5032000;28;20234;-74
2022/06/19 19:58:22;;;;;;;10.95;4.15;;;27.10;75.80;;;;;;5036274;28;21977;-75
2022/06/19 20:01:14;;;;;;;11.38;3.95;;;27.10;76.20;;;;;;5033408;28;20237;-74
2022/06/19 20:04:04;;;;;;;13.27;4.15;;;27.00;77.30;;;;;;5039598;28;20319;-74
2022/06/19 20:13:05;;;;;;;11.77;4.95;;;26.90;77.50;;;;;;5031421;28;20679;-74
2022/06/19 20:15:54;;;;;;;15.27;4.70;;;26.80;77.70;;;;;;5035334;28;20236;-74
2022/06/19 20:18:42;;;;;;;12.68;4.88;;;26.70;77.90;;;;;;5031827;28;20233;-74
2022/06/19 20:21:36;;;;;;;17.00;4.90;;;26.70;78.30;;;;;;5034799;28;20715;-75
2022/06/19 20:24:29;;;;;;;10.73;4.25;;;26.70;78.00;;;;;;5035533;28;20221;-76
2022/06/19 20:27:21;;;;;;;13.73;4.40;;;26.60;78.10;;;;;;5045538;28;20217;-76
2022/06/19 20:30:15;;;;;;;10.57;4.72;;;26.60;77.80;;;;;;5032604;28;20229;-77
2022/06/19 20:33:04;;;;;;;11.23;4.30;;;26.60;77.80;;;;;;5043873;28;20231;-75
2022/06/19 20:35:52;;;;;;;9.10;3.97;;;26.60;77.90;;;;;;5031575;28;20217;-75
2022/06/19 20:38:44;;;;;;;12.73;3.83;;;26.50;77.40;;;;;;5034109;28;20861;-75
2022/06/19 20:44:40;;;;;;;14.63;4.00;;;26.50;77.20;;;;;;5033392;28;20221;-75
2022/06/19 20:47:32;;;;;;;14.15;4.55;;;26.50;77.40;;;;;;5032412;28;20221;-75
2022/06/19 20:50:25;;;;;;;16.02;6.55;;;26.40;78.10;;;;;;5030745;28;20595;-76
2022/06/19 20:53:17;;;;;;;19.55;7.57;;;26.40;78.90;;;;;;5033532;28;20224;-76
2022/06/19 20:56:11;;;;;;;7.85;4.70;;;26.40;79.40;;;;;;5038651;28;20221;-76
2022/06/19 20:58:59;;;;;;;16.02;3.97;;;26.20;78.80;;;;;;5034583;28;20228;-76
2022/06/19 21:01:48;;;;;;;12.13;4.78;;;26.20;78.80;;;;;;5028895;28;20217;-77
2022/06/19 21:04:38;;;;;;;9.13;4.32;;;26.20;78.30;;;;;;5030529;28;20322;-76